createdAt,value
2019-02-06T00:00:30.409Z,5.80
2019-02-06T00:02:57.913Z,5.80
2019-02-06T00:07:53.235Z,5.80
2019-02-06T00:10:20.646Z,5.70
2019-02-06T00:12:48.057Z,5.70
2019-02-06T00:22:37.802Z,5.70
2019-02-06T00:37:22.489Z,5.60
2019-02-06T00:39:49.915Z,5.60
2019-02-06T00:42:17.549Z,5.60
2019-02-06T00:57:01.744Z,5.60
2019-02-06T00:59:29.738Z,5.60
2019-02-06T01:01:57.026Z,5.60
2019-02-06T01:04:24.445Z,5.60
2019-02-06T01:09:19.170Z,5.60
2019-02-06T01:19:08.628Z,5.60
2019-02-06T01:21:35.979Z,5.60
2019-02-06T01:24:03.952Z,5.60
2019-02-06T01:33:55.519Z,5.40
2019-02-06T01:43:45.486Z,5.60
2019-02-06T01:46:12.802Z,5.60
2019-02-06T01:48:40.211Z,5.60
2019-02-06T01:51:07.540Z,5.60
2019-02-06T01:53:34.943Z,5.60
2019-02-06T01:56:02.707Z,5.50
2019-02-06T01:58:29.997Z,5.50
2019-02-06T02:00:57.324Z,5.50
2019-02-06T02:06:01.903Z,5.50
2019-02-06T02:13:16.924Z,5.40
2019-02-06T02:20:39.026Z,5.40
2019-02-06T02:33:03.558Z,5.30
2019-02-06T02:35:30.937Z,5.30
2019-02-06T02:40:25.734Z,5.30
2019-02-06T02:45:20.492Z,5.30
2019-02-06T02:47:48.253Z,5.20
2019-02-06T02:50:15.659Z,5.20
2019-02-06T02:52:43.058Z,5.20
2019-02-06T02:57:37.931Z,5.20
2019-02-06T03:00:10.437Z,5.20
2019-02-06T03:03:00.228Z,5.20
2019-02-06T03:05:30.326Z,5.10
2019-02-06T03:10:25.453Z,5.10
2019-02-06T03:12:52.779Z,5.00
2019-02-06T03:15:20.537Z,4.90
2019-02-06T03:17:47.897Z,5.00
2019-02-06T03:30:07.172Z,4.80
2019-02-06T03:32:36.187Z,4.90
2019-02-06T03:35:04.657Z,4.90
2019-02-06T03:42:26.905Z,4.80
2019-02-06T03:44:54.124Z,4.80
2019-02-06T03:47:21.412Z,4.80
2019-02-06T03:49:48.769Z,4.80
2019-02-06T03:52:16.082Z,4.80
2019-02-06T03:54:43.502Z,4.80
2019-02-06T03:57:10.853Z,4.80
2019-02-06T03:59:38.238Z,4.80
2019-02-06T04:14:24.267Z,4.70
2019-02-06T04:16:51.663Z,4.50
2019-02-06T04:19:18.992Z,4.70
2019-02-06T04:21:46.375Z,4.60
2019-02-06T04:26:41.320Z,4.60
2019-02-06T04:29:08.618Z,4.60
2019-02-06T04:34:03.509Z,4.60
2019-02-06T04:36:30.948Z,4.50
2019-02-06T04:38:58.365Z,4.50
2019-02-06T04:41:25.768Z,4.50
2019-02-06T04:51:15.558Z,4.40
2019-02-06T04:56:10.448Z,4.30
2019-02-06T04:58:37.843Z,4.30
2019-02-06T05:01:05.289Z,4.20
2019-02-06T05:03:33.149Z,4.20
2019-02-06T05:08:27.879Z,4.20
2019-02-06T05:10:55.266Z,4.10
2019-02-06T05:13:22.671Z,4.10
2019-02-06T05:15:50.118Z,4.00
2019-02-06T05:20:44.770Z,4.00
2019-02-06T05:28:07.870Z,3.80
2019-02-06T05:30:35.220Z,3.80
2019-02-06T05:33:02.701Z,3.80
2019-02-06T05:35:30.175Z,3.80
2019-02-06T05:40:25.295Z,3.80
2019-02-06T05:42:53.007Z,3.80
2019-02-06T05:45:20.605Z,3.80
2019-02-06T05:50:16.402Z,3.80
2019-02-06T05:55:11.790Z,3.80
2019-02-06T05:57:39.233Z,3.80
2019-02-06T06:00:20.017Z,3.60
2019-02-06T06:02:47.415Z,3.70
2019-02-06T06:05:14.841Z,3.70
2019-02-06T06:07:45.172Z,3.60
2019-02-06T06:10:13.166Z,3.60
2019-02-06T06:12:40.842Z,3.40
2019-02-06T06:20:07.386Z,3.30
2019-02-06T06:27:29.488Z,3.20
2019-02-06T06:32:26.199Z,3.10
2019-02-06T06:34:55.666Z,3.10
2019-02-06T06:37:23.164Z,3.10
2019-02-06T06:39:50.584Z,3.10
2019-02-06T06:42:24.039Z,3.00
2019-02-06T06:44:49.886Z,3.00
2019-02-06T06:47:17.686Z,3.00
2019-02-06T06:49:45.166Z,3.00
2019-02-06T06:52:12.534Z,2.90
2019-02-06T06:54:39.913Z,2.90
2019-02-06T06:57:07.274Z,2.90
2019-02-06T06:59:34.749Z,2.90
2019-02-06T07:04:29.544Z,2.80
2019-02-06T07:11:51.562Z,2.80
2019-02-06T07:14:19.026Z,2.90
2019-02-06T07:19:13.827Z,2.80
2019-02-06T07:24:08.932Z,2.90
2019-02-06T07:26:36.402Z,2.90
2019-02-06T07:29:04.028Z,2.90
2019-02-06T07:31:31.461Z,2.90
2019-02-06T07:33:59.027Z,2.90
2019-02-06T07:36:26.401Z,2.90
2019-02-06T07:41:21.148Z,2.90
2019-02-06T07:58:32.917Z,2.80
2019-02-06T08:08:35.294Z,2.80
2019-02-06T08:15:48.049Z,2.80
2019-02-06T08:18:15.925Z,2.90
2019-02-06T08:23:10.639Z,3.00
2019-02-06T08:25:37.985Z,3.00
2019-02-06T08:28:05.605Z,3.10
2019-02-06T08:35:31.106Z,3.40
2019-02-06T08:37:58.815Z,3.50
2019-02-06T08:45:22.769Z,3.80
2019-02-06T08:47:50.109Z,3.90
2019-02-06T08:50:17.654Z,4.00
2019-02-06T08:55:15.473Z,4.20
2019-02-06T08:57:42.938Z,4.40
2019-02-06T09:00:17.301Z,4.50
2019-02-06T09:02:44.771Z,4.60
2019-02-06T09:05:12.410Z,4.70
2019-02-06T09:12:36.008Z,4.90
2019-02-06T09:15:04.491Z,5.20
2019-02-06T09:19:59.246Z,5.50
2019-02-06T09:24:54.033Z,5.80
2019-02-06T09:29:49.269Z,6.10
2019-02-06T09:34:44.110Z,6.50
2019-02-06T09:37:11.453Z,6.60
2019-02-06T09:42:06.247Z,7.00
2019-02-06T09:44:34.371Z,7.00
2019-02-06T09:49:29.066Z,7.30
2019-02-06T09:59:18.948Z,7.90
2019-02-06T10:01:46.389Z,8.10
2019-02-06T10:09:08.876Z,8.40
2019-02-06T10:11:36.319Z,8.50
2019-02-06T10:14:04.002Z,8.60
2019-02-06T10:18:58.933Z,8.80
2019-02-06T10:21:26.838Z,8.90
2019-02-06T10:23:54.080Z,8.90
2019-02-06T10:26:21.549Z,9.20
2019-02-06T10:28:48.906Z,9.40
2019-02-06T10:31:16.350Z,9.60
2019-02-06T10:33:43.824Z,9.70
2019-02-06T10:36:11.273Z,9.90
2019-02-06T10:38:39.512Z,10.10
2019-02-06T10:41:06.836Z,10.30
2019-02-06T10:46:03.639Z,10.50
2019-02-06T10:48:31.055Z,10.80
2019-02-06T10:50:58.612Z,11.20
2019-02-06T10:53:26.009Z,11.50
2019-02-06T10:55:53.445Z,11.80
2019-02-06T10:58:20.848Z,12.00
2019-02-06T11:00:56.760Z,12.10
2019-02-06T11:03:24.232Z,12.40
2019-02-06T11:05:51.704Z,12.70
2019-02-06T11:08:19.055Z,13.30
2019-02-06T11:10:46.432Z,13.20
2019-02-06T11:13:14.097Z,13.40
2019-02-06T11:15:41.773Z,13.50
2019-02-06T11:18:09.160Z,13.60
2019-02-06T11:20:36.844Z,13.70
2019-02-06T11:23:05.397Z,13.90
2019-02-06T11:25:33.161Z,13.80
2019-02-06T11:28:00.543Z,13.80
2019-02-06T11:30:29.140Z,13.90
2019-02-06T11:32:56.551Z,13.90
2019-02-06T11:35:23.999Z,14.00
2019-02-06T11:37:51.441Z,14.00
2019-02-06T11:40:21.627Z,14.20
2019-02-06T11:42:48.996Z,14.30
2019-02-06T11:45:19.465Z,14.40
2019-02-06T11:47:47.463Z,14.50
2019-02-06T11:50:16.726Z,14.50
2019-02-06T11:52:44.661Z,14.60
2019-02-06T11:55:15.073Z,14.60
2019-02-06T11:57:42.531Z,14.60
2019-02-06T12:00:14.268Z,15.10
2019-02-06T12:02:42.029Z,14.90
2019-02-06T12:05:09.649Z,15.00
2019-02-06T12:07:37.265Z,15.20
2019-02-06T12:10:10.011Z,15.40
2019-02-06T12:12:37.085Z,15.60
2019-02-06T12:15:07.775Z,15.70
2019-02-06T12:17:35.183Z,16.00
2019-02-06T12:20:04.772Z,16.00
2019-02-06T12:22:32.166Z,16.20
2019-02-06T12:24:59.508Z,16.20
2019-02-06T12:27:26.817Z,16.10
2019-02-06T12:29:54.331Z,16.10
2019-02-06T12:32:21.627Z,16.00
2019-02-06T12:34:49.012Z,15.90
2019-02-06T12:37:16.544Z,15.80
2019-02-06T12:39:44.016Z,15.70
2019-02-06T12:42:11.430Z,15.60
2019-02-06T12:44:38.864Z,15.40
2019-02-06T12:47:06.279Z,15.30
2019-02-06T12:52:00.836Z,15.10
2019-02-06T12:54:28.154Z,15.00
2019-02-06T12:56:55.540Z,15.00
2019-02-06T12:59:23.357Z,14.90
2019-02-06T13:01:50.782Z,14.90
2019-02-06T13:04:18.143Z,14.90
2019-02-06T13:06:45.533Z,14.80
2019-02-06T13:09:13.068Z,14.80
2019-02-06T13:11:40.457Z,14.70
2019-02-06T13:14:07.811Z,14.70
2019-02-06T13:16:35.274Z,14.60
2019-02-06T13:21:30.099Z,14.50
2019-02-06T13:23:57.396Z,14.50
2019-02-06T13:26:24.760Z,14.60
2019-02-06T13:28:52.079Z,14.60
2019-02-06T13:31:19.384Z,14.70
2019-02-06T13:33:46.712Z,14.80
2019-02-06T13:36:14.374Z,14.60
2019-02-06T13:38:41.743Z,14.90
2019-02-06T13:41:09.153Z,15.00
2019-02-06T13:43:36.554Z,15.10
2019-02-06T13:46:04.297Z,15.10
2019-02-06T13:48:33.656Z,15.30
2019-02-06T13:51:00.743Z,15.30
2019-02-06T13:53:28.467Z,15.30
2019-02-06T13:55:55.955Z,15.40
2019-02-06T13:58:23.449Z,15.40
2019-02-06T14:00:52.470Z,15.40
2019-02-06T14:03:20.114Z,15.50
2019-02-06T14:08:16.074Z,15.60
2019-02-06T14:10:44.109Z,15.70
2019-02-06T14:13:11.604Z,15.80
2019-02-06T14:15:40.618Z,15.80
2019-02-06T14:18:08.264Z,15.70
2019-02-06T14:20:35.789Z,15.70
2019-02-06T14:23:21.518Z,15.60
2019-02-06T14:26:19.729Z,15.60
2019-02-06T14:29:27.649Z,15.60
2019-02-06T14:32:27.735Z,15.60
2019-02-06T14:35:09.255Z,15.60
2019-02-06T14:38:27.879Z,15.50
2019-02-06T14:41:37.305Z,15.50
2019-02-06T14:44:32.718Z,15.40
2019-02-06T14:47:38.567Z,15.20
2019-02-06T14:50:23.683Z,15.00
2019-02-06T14:53:15.540Z,14.70
2019-02-06T14:59:10.437Z,14.20
2019-02-06T15:02:34.047Z,13.90
2019-02-06T15:05:37.007Z,13.50
2019-02-06T15:11:58.985Z,12.80
2019-02-06T15:15:04.175Z,12.50
2019-02-06T15:17:54.125Z,12.20
2019-02-06T15:23:51.907Z,11.70
2019-02-06T15:26:25.611Z,11.50
2019-02-06T15:32:07.029Z,11.10
2019-02-06T15:35:28.199Z,10.80
2019-02-06T15:40:44.870Z,10.40
2019-02-06T15:46:17.849Z,10.10
2019-02-06T15:49:41.326Z,10.00
2019-02-06T15:52:49.335Z,9.80
2019-02-06T15:55:43.019Z,9.50
2019-02-06T15:58:55.629Z,9.40
2019-02-06T16:02:04.971Z,9.20
2019-02-06T16:05:23.302Z,9.10
2019-02-06T16:11:02.398Z,8.80
2019-02-06T16:14:20.510Z,8.70
2019-02-06T16:22:57.569Z,8.30
2019-02-06T16:25:54.798Z,8.20
2019-02-06T16:28:48.492Z,8.10
2019-02-06T16:31:31.935Z,8.00
2019-02-06T16:37:14.139Z,7.80
2019-02-06T16:43:08.722Z,7.70
2019-02-06T16:46:07.334Z,7.60
2019-02-06T16:49:00.564Z,7.50
2019-02-06T16:51:56.696Z,7.50
2019-02-06T16:58:07.917Z,7.40
2019-02-06T17:03:46.594Z,7.30
2019-02-06T17:06:58.036Z,7.20
2019-02-06T17:10:06.246Z,7.10
2019-02-06T17:13:17.750Z,7.00
2019-02-06T17:16:20.259Z,7.00
2019-02-06T17:19:32.006Z,7.00
2019-02-06T17:22:32.928Z,6.90
2019-02-06T17:25:36.911Z,6.80
2019-02-06T17:28:21.887Z,6.80
2019-02-06T17:31:42.667Z,6.80
2019-02-06T17:40:20.281Z,6.60
2019-02-06T17:43:30.668Z,6.60
2019-02-06T17:46:34.463Z,6.50
2019-02-06T17:49:13.655Z,6.50
2019-02-06T17:52:14.443Z,6.30
2019-02-06T17:57:42.477Z,6.40
2019-02-06T18:00:18.074Z,6.40
2019-02-06T18:05:13.345Z,6.30
2019-02-06T18:10:11.488Z,6.20
2019-02-06T18:12:39.057Z,6.20
2019-02-06T18:15:06.713Z,6.20
2019-02-06T18:17:34.361Z,6.20
2019-02-06T18:22:29.239Z,6.10
2019-02-06T18:24:56.908Z,6.10
2019-02-06T18:27:24.477Z,6.10
2019-02-06T18:29:53.008Z,6.10
2019-02-06T18:32:20.782Z,6.10
2019-02-06T18:34:48.336Z,6.10
2019-02-06T18:37:16.119Z,6.10
2019-02-06T18:42:11.945Z,6.10
2019-02-06T18:49:34.219Z,6.00
2019-02-06T18:59:24.668Z,6.00
2019-02-06T19:01:52.134Z,6.00
2019-02-06T19:06:47.710Z,6.00
2019-02-06T19:14:11.744Z,6.00
2019-02-06T19:16:39.402Z,6.00
2019-02-06T19:19:07.320Z,6.00
2019-02-06T19:21:34.718Z,6.00
2019-02-06T19:24:02.223Z,6.00
2019-02-06T19:31:29.376Z,5.90
2019-02-06T19:34:11.613Z,5.90
2019-02-06T19:36:39.079Z,5.90
2019-02-06T19:39:09.798Z,5.90
2019-02-06T19:41:37.362Z,5.80
2019-02-06T19:44:04.862Z,5.80
2019-02-06T19:49:00.816Z,5.80
2019-02-06T19:51:48.067Z,5.80
2019-02-06T19:54:16.855Z,5.80
2019-02-06T19:56:44.495Z,5.80
2019-02-06T19:59:12.071Z,5.70
2019-02-06T20:09:21.885Z,5.70
2019-02-06T20:11:49.425Z,5.70
2019-02-06T20:14:17.048Z,5.70
2019-02-06T20:19:13.639Z,5.70
2019-02-06T20:21:41.400Z,5.70
2019-02-06T20:24:08.910Z,5.60
2019-02-06T20:26:36.354Z,5.60
2019-02-06T20:31:31.525Z,5.60
2019-02-06T20:33:59.011Z,5.60
2019-02-06T20:36:29.687Z,5.60
2019-02-06T20:38:57.179Z,5.60
2019-02-06T20:43:52.595Z,5.70
2019-02-06T20:46:20.012Z,5.70
2019-02-06T20:48:47.549Z,5.70
2019-02-06T20:51:15.020Z,5.70
2019-02-06T20:53:42.471Z,5.70
2019-02-06T20:56:09.886Z,5.70
2019-02-06T21:01:05.227Z,5.70
2019-02-06T21:03:32.671Z,5.60
2019-02-06T21:08:27.585Z,5.60
2019-02-06T21:13:32.482Z,5.60
2019-02-06T21:18:22.222Z,5.50
2019-02-06T21:23:22.382Z,5.40
2019-02-06T21:28:17.277Z,5.40
2019-02-06T21:33:14.523Z,5.40
2019-02-06T21:35:42.623Z,5.30
2019-02-06T21:38:13.144Z,5.30
2019-02-06T21:40:43.677Z,5.30
2019-02-06T21:43:11.117Z,5.30
2019-02-06T21:53:04.824Z,5.30
2019-02-06T21:57:59.905Z,5.30
2019-02-06T22:00:36.011Z,5.30
2019-02-06T22:03:03.799Z,5.20
2019-02-06T22:07:59.071Z,5.20
2019-02-06T22:10:31.991Z,5.10
2019-02-06T22:12:59.481Z,5.20
2019-02-06T22:15:27.422Z,5.20
2019-02-06T22:17:55.108Z,5.20
2019-02-06T22:20:45.866Z,5.20
2019-02-06T22:23:11.468Z,5.20
2019-02-06T22:25:41.390Z,5.20
2019-02-06T22:28:09.660Z,5.20
2019-02-06T22:30:37.042Z,5.20
2019-02-06T22:35:32.320Z,5.10
2019-02-06T22:37:59.967Z,5.10
2019-02-06T22:40:27.447Z,5.10
2019-02-06T22:45:24.531Z,5.10
2019-02-06T22:47:51.922Z,5.10
2019-02-06T22:50:21.448Z,5.10
2019-02-06T22:52:53.353Z,5.00
2019-02-06T22:57:48.282Z,5.00
2019-02-06T23:00:32.449Z,5.00
2019-02-06T23:02:59.804Z,5.00
2019-02-06T23:05:27.100Z,4.90
2019-02-06T23:10:22.198Z,4.90
2019-02-06T23:12:49.588Z,4.90
2019-02-06T23:17:44.698Z,4.90
2019-02-06T23:20:12.321Z,4.80
2019-02-06T23:22:39.824Z,4.90
2019-02-06T23:25:07.837Z,4.90
2019-02-06T23:27:35.233Z,4.80
2019-02-06T23:30:03.453Z,4.90
2019-02-06T23:32:31.096Z,4.90
2019-02-06T23:34:59.700Z,4.80
2019-02-06T23:42:22.053Z,4.80
2019-02-06T23:47:16.982Z,4.80
2019-02-06T23:52:11.787Z,4.80
2019-02-06T23:54:39.265Z,4.80
2019-02-06T23:57:06.811Z,4.80
2019-02-06T23:59:34.310Z,4.80
